Time;durP1;ratioP1;P1;durP2;ratioP2;P2;SDS_P1;SDS_P2;PMS_P1;PMS_P2;Temp;Humidity;BMP_temperature;BMP_pressure;BME280_temperature;BME280_humidity;BME280_pressure;Samples;Min_cycle;Max_cycle;Signal;HPM_P1;HPM_P2
2024/03/26 00:01:08;;;;;;;21.55;11.00;;;;;;;30.39;80.14;101141.13;5036298;28;66969;-29
2024/03/26 00:03:37;;;;;;;29.63;11.52;;;;;;;30.48;78.88;101150.69;5030212;28;70919;-29
2024/03/26 00:06:05;;;;;;;22.65;11.30;;;;;;;30.54;78.93;101159.84;5043836;28;65834;-30
2024/03/26 00:08:34;;;;;;;26.50;11.07;;;;;;;30.54;79.89;101163.38;5012674;28;70373;-30
2024/03/26 00:11:04;;;;;;;25.35;10.40;;;;;;;30.56;79.89;101157.75;5036386;28;65704;-30
2024/03/26 00:13:33;;;;;;;25.70;10.63;;;;;;;30.59;79.23;101160.88;5029111;28;70026;-31
2024/03/26 00:16:02;;;;;;;19.20;9.93;;;;;;;30.59;78.67;101163.59;5028539;28;66844;-31
2024/03/26 00:18:31;;;;;;;13.63;9.75;;;;;;;30.64;78.78;101162.94;5023147;28;70453;-30
2024/03/26 00:21:00;;;;;;;16.40;9.95;;;;;;;30.63;78.56;101156.69;5013402;28;66998;-30
2024/03/26 00:23:29;;;;;;;14.00;8.73;;;;;;;30.60;78.64;101153.59;5026047;28;71051;-30
2024/03/26 00:25:58;;;;;;;12.52;8.77;;;;;;;30.63;78.66;101164.81;5022835;28;66075;-30
2024/03/26 00:28:27;;;;;;;13.98;9.23;;;;;;;30.60;77.94;101178.78;5024309;28;70235;-30
2024/03/26 00:30:55;;;;;;;13.20;8.80;;;;;;;30.65;78.01;101180.88;5018536;28;67147;-30
2024/03/26 00:33:24;;;;;;;11.05;7.80;;;;;;;30.62;77.88;101190.25;4996051;28;69869;-31
2024/03/26 00:35:53;;;;;;;13.80;8.57;;;;;;;30.66;77.64;101182.50;5028062;28;66305;-30
2024/03/26 00:38:22;;;;;;;21.10;10.40;;;;;;;30.70;78.79;101187.31;5023927;28;69220;-30
2024/03/26 00:40:51;;;;;;;18.70;10.52;;;;;;;30.75;79.67;101186.66;5021969;28;66093;-38
2024/03/26 00:43:20;;;;;;;28.10;11.77;;;;;;;30.76;80.36;101179.34;5032444;28;70062;-30
2024/03/26 00:45:48;;;;;;;25.95;11.77;;;;;;;30.76;80.73;101187.47;5029025;28;66368;-31
2024/03/26 00:48:18;;;;;;;22.80;11.27;;;;;;;30.79;80.77;101185.19;5041129;28;70728;-30
2024/03/26 00:50:46;;;;;;;21.52;11.57;;;;;;;30.76;81.38;101188.34;5027734;28;66337;-31
2024/03/26 00:53:15;;;;;;;26.88;11.27;;;;;;;30.86;80.85;101198.75;5024917;28;69590;-30
2024/03/26 00:55:44;;;;;;;21.10;10.18;;;;;;;30.89;81.39;101198.31;5026314;28;66791;-30
2024/03/26 00:58:13;;;;;;;19.85;9.88;;;;;;;30.92;80.53;101203.31;5030225;28;70640;-29
2024/03/26 01:00:42;;;;;;;19.85;10.07;;;;;;;30.93;80.03;101194.97;5026968;28;66941;-29
2024/03/26 01:03:11;;;;;;;18.60;10.07;;;;;;;30.94;79.47;101202.03;5047054;28;70289;-30
2024/03/26 01:05:39;;;;;;;12.63;9.63;;;;;;;30.95;78.96;101197.47;5039616;28;65317;-32
2024/03/26 01:08:08;;;;;;;17.38;9.82;;;;;;;30.97;79.06;101202.69;5030176;28;69731;-30
2024/03/26 01:10:37;;;;;;;21.40;10.45;;;;;;;31.00;79.34;101211.19;5022894;28;66842;-29
2024/03/26 01:13:07;;;;;;;18.20;9.70;;;;;;;31.02;78.70;101217.25;5016228;28;70135;-30
2024/03/26 01:15:36;;;;;;;15.18;8.80;;;;;;;31.04;78.75;101223.28;5040161;28;66084;-30
2024/03/26 01:18:05;;;;;;;13.68;9.05;;;;;;;31.04;78.76;101228.72;5025687;28;69202;-29
2024/03/26 01:20:34;;;;;;;16.63;8.88;;;;;;;31.07;78.53;101225.56;5032218;28;65699;-30
2024/03/26 01:23:03;;;;;;;13.80;8.95;;;;;;;31.08;78.58;101219.09;5023504;28;70198;-30
2024/03/26 01:25:32;;;;;;;10.70;7.75;;;;;;;31.08;78.38;101229.94;5031583;28;66714;-30
2024/03/26 01:28:02;;;;;;;19.38;9.65;;;;;;;31.13;78.39;101230.13;5036181;28;70380;-29
2024/03/26 01:30:31;;;;;;;13.43;9.32;;;;;;;31.13;78.41;101232.00;4997898;28;66078;-29
2024/03/26 01:33:00;;;;;;;14.82;8.25;;;;;;;31.17;78.14;101244.06;5039586;28;70404;-30
2024/03/26 01:35:29;;;;;;;14.23;9.13;;;;;;;31.20;77.61;101242.81;5034214;28;65797;-30
2024/03/26 01:37:58;;;;;;;20.17;9.10;;;;;;;31.21;77.49;101236.38;5028395;28;70211;-31
2024/03/26 01:40:27;;;;;;;17.38;9.82;;;;;;;31.24;77.33;101238.66;5042195;28;66258;-31
2024/03/26 01:42:58;;;;;;;12.50;8.23;;;;;;;31.21;77.51;101239.06;5027744;28;69389;-29
2024/03/26 01:45:29;;;;;;;16.15;8.65;;;;;;;31.27;77.73;101243.63;5025724;28;65772;-30
2024/03/26 01:47:58;;;;;;;11.55;7.85;;;;;;;31.30;77.30;101248.63;5001811;28;69948;-29
2024/03/26 01:50:27;;;;;;;13.40;8.40;;;;;;;31.26;77.17;101241.94;5040406;28;65766;-30
2024/03/26 01:52:57;;;;;;;12.50;8.45;;;;;;;31.34;77.17;101249.84;5028778;28;69159;-30
2024/03/26 01:55:26;;;;;;;8.40;7.63;;;;;;;31.37;77.06;101261.16;5031580;28;66149;-31
2024/03/26 01:57:55;;;;;;;11.63;7.78;;;;;;;31.39;76.93;101258.19;5024868;28;70440;-30
2024/03/26 02:00:29;;;;;;;8.68;7.72;;;;;;;31.24;76.92;101225.09;5029335;28;65552;-30
2024/03/26 02:02:58;;;;;;;15.93;8.05;;;;;;;31.43;77.10;101264.88;4994369;28;69743;-31
2024/03/26 02:05:27;;;;;;;12.45;7.78;;;;;;;31.47;76.80;101268.81;5008135;28;65994;-31
2024/03/26 02:07:57;;;;;;;11.02;8.02;;;;;;;31.35;76.64;101229.84;5034524;28;69557;-30
2024/03/26 02:10:27;;;;;;;11.13;7.38;;;;;;;31.53;76.68;101258.97;5041624;28;66163;-30
2024/03/26 02:12:56;;;;;;;11.95;7.05;;;;;;;31.55;76.67;101256.88;5034993;28;69600;-31
2024/03/26 02:15:25;;;;;;;12.82;7.72;;;;;;;31.56;76.42;101251.22;5021934;28;66575;-31
2024/03/26 02:17:54;;;;;;;12.20;7.15;;;;;;;31.61;76.14;101261.44;5017762;28;68249;-30
2024/03/26 02:20:25;;;;;;;8.65;7.43;;;;;;;31.63;76.23;101253.94;5027626;28;65821;-30
2024/03/26 02:22:58;;;;;;;11.88;6.82;;;;;;;31.67;76.36;101259.75;5042193;28;69846;-29
2024/03/26 02:25:27;;;;;;;12.82;7.13;;;;;;;31.67;75.98;101249.72;5047690;28;65007;-30
2024/03/26 02:27:56;;;;;;;7.43;6.75;;;;;;;31.74;75.94;101247.00;5031657;28;70142;-31
2024/03/26 02:30:25;;;;;;;11.25;7.07;;;;;;;31.77;76.02;101252.81;5027097;28;66147;-31
2024/03/26 02:32:53;;;;;;;9.95;6.45;;;;;;;31.80;75.83;101248.81;5027858;28;70282;-30
2024/03/26 02:35:22;;;;;;;6.97;5.97;;;;;;;31.84;75.61;101250.03;5023199;28;65902;-34
2024/03/26 02:38:17;;;;;;;11.85;7.25;;;;;;;31.88;75.51;101251.28;5034810;28;70915;-30
2024/03/26 02:40:46;;;;;;;8.13;6.93;;;;;;;31.91;75.51;101245.44;5034283;28;66309;-31
2024/03/26 02:43:16;;;;;;;7.65;6.85;;;;;;;31.93;75.38;101243.34;5020175;28;69117;-30
2024/03/26 02:45:45;;;;;;;13.18;7.05;;;;;;;31.89;75.40;101231.22;5022044;28;66572;-30
2024/03/26 02:48:14;;;;;;;7.63;6.82;;;;;;;32.00;75.64;101243.31;5031445;28;68904;-30
2024/03/26 02:50:43;;;;;;;7.18;6.57;;;;;;;32.02;75.36;101243.91;5020450;28;66271;-30
2024/03/26 02:53:12;;;;;;;8.57;6.85;;;;;;;32.05;75.49;101241.59;5031756;28;70150;-32
2024/03/26 02:55:41;;;;;;;7.35;6.45;;;;;;;32.09;75.34;101241.16;5028834;28;66105;-30
2024/03/26 02:58:10;;;;;;;11.35;6.75;;;;;;;32.07;74.97;101225.09;5022227;28;70367;-30
2024/03/26 03:00:38;;;;;;;9.25;6.80;;;;;;;32.15;74.79;101224.84;5046151;28;66350;-31
2024/03/26 03:03:07;;;;;;;6.80;6.20;;;;;;;32.17;74.84;101230.03;5029359;28;69609;-30
2024/03/26 03:05:36;;;;;;;11.00;6.60;;;;;;;32.19;74.82;101230.63;5036611;28;65408;-31
2024/03/26 03:08:06;;;;;;;12.20;6.93;;;;;;;32.23;75.02;101226.41;5036603;28;70565;-29
2024/03/26 03:10:35;;;;;;;6.63;5.82;;;;;;;32.22;74.56;101219.34;5036420;28;66203;-30
2024/03/26 03:13:04;;;;;;;13.80;6.78;;;;;;;32.22;74.70;101209.31;5039887;28;69030;-30
2024/03/26 03:15:34;;;;;;;6.45;5.78;;;;;;;32.31;74.62;101217.16;5036929;28;66481;-31
2024/03/26 03:18:04;;;;;;;7.18;6.47;;;;;;;32.34;74.59;101211.28;5038962;28;69422;-31
2024/03/26 03:20:32;;;;;;;6.60;5.85;;;;;;;32.35;74.56;101213.81;5011903;28;66515;-30
2024/03/26 03:23:01;;;;;;;7.53;6.55;;;;;;;32.35;74.52;101200.22;5013960;28;70676;-30
2024/03/26 03:25:30;;;;;;;7.57;5.93;;;;;;;32.43;74.34;101212.66;5028507;28;66704;-31
2024/03/26 03:27:59;;;;;;;8.45;5.88;;;;;;;32.45;74.57;101207.84;5004667;28;70240;-30
2024/03/26 03:30:28;;;;;;;7.35;5.30;;;;;;;32.48;74.24;101202.00;5032034;28;65489;-30
2024/03/26 03:32:57;;;;;;;14.65;5.93;;;;;;;32.52;74.31;101202.41;5023394;28;70329;-33
2024/03/26 03:35:26;;;;;;;6.47;5.82;;;;;;;32.49;74.43;101188.22;5026993;28;66683;-30
2024/03/26 03:37:55;;;;;;;6.05;5.53;;;;;;;32.56;74.27;101192.75;5025906;28;70419;-29
2024/03/26 03:40:24;;;;;;;6.13;5.47;;;;;;;32.60;74.08;101196.69;5043282;28;66215;-30
2024/03/26 03:42:53;;;;;;;6.65;5.85;;;;;;;32.61;74.17;101184.75;5029343;28;69717;-30
2024/03/26 03:45:22;;;;;;;7.57;6.13;;;;;;;32.63;74.07;101174.50;5041156;28;65781;-29
2024/03/26 03:47:51;;;;;;;6.43;5.82;;;;;;;32.68;73.98;101171.91;5030133;28;69687;-31
2024/03/26 03:50:20;;;;;;;8.40;5.43;;;;;;;32.70;73.92;101167.09;5025101;28;65920;-30
2024/03/26 03:52:49;;;;;;;6.60;5.78;;;;;;;32.72;73.97;101165.00;5029633;28;68994;-30
2024/03/26 03:55:18;;;;;;;6.47;5.88;;;;;;;32.75;73.95;101148.25;5018889;28;65616;-30
2024/03/26 03:57:47;;;;;;;6.13;5.63;;;;;;;32.77;73.99;101153.47;5040298;28;70705;-31
2024/03/26 04:00:16;;;;;;;5.88;5.32;;;;;;;32.81;73.83;101147.31;5030289;28;65876;-30
2024/03/26 04:02:45;;;;;;;5.55;5.05;;;;;;;32.83;73.93;101145.22;5037072;28;70914;-30
2024/03/26 04:05:14;;;;;;;6.32;5.82;;;;;;;32.85;73.81;101142.28;5039188;28;65578;-31
2024/03/26 04:07:43;;;;;;;6.05;5.47;;;;;;;32.87;73.84;101135.53;5018356;28;69782;-30
2024/03/26 04:10:12;;;;;;;6.30;5.75;;;;;;;32.91;73.85;101131.31;5018175;28;66729;-30
2024/03/26 04:12:42;;;;;;;5.72;5.32;;;;;;;32.93;73.71;101129.22;5019186;28;69283;-30
2024/03/26 04:15:11;;;;;;;6.05;5.45;;;;;;;32.90;73.73;101124.25;5003614;28;66061;-30
2024/03/26 04:17:41;;;;;;;8.90;6.10;;;;;;;33.01;73.68;101124.53;5017831;28;69483;-30
2024/03/26 04:20:10;;;;;;;6.88;5.15;;;;;;;33.04;73.74;101118.63;5018886;28;66241;-30
2024/03/26 04:22:39;;;;;;;7.10;5.30;;;;;;;33.02;73.39;101108.03;5018684;28;70097;-30
2024/03/26 04:25:08;;;;;;;5.90;5.07;;;;;;;33.03;73.45;101095.25;5016762;28;66336;-31
2024/03/26 04:27:37;;;;;;;6.20;5.65;;;;;;;33.10;73.71;101101.44;5001930;28;70103;-30
2024/03/26 04:30:08;;;;;;;5.85;5.20;;;;;;;33.08;73.19;101092.69;5018848;28;66661;-31
2024/03/26 04:32:38;;;;;;;6.22;5.63;;;;;;;33.15;73.49;101096.13;5016510;28;70397;-31
2024/03/26 04:35:07;;;;;;;5.55;5.05;;;;;;;33.18;73.39;101092.94;5034443;28;66051;-31
2024/03/26 04:37:37;;;;;;;5.45;5.05;;;;;;;32.99;73.55;101050.53;5017730;28;69509;-31
2024/03/26 04:40:07;;;;;;;6.43;5.82;;;;;;;33.13;73.19;101073.78;5016661;28;66012;-31
2024/03/26 04:42:36;;;;;;;6.55;5.95;;;;;;;33.19;73.17;101066.59;5019135;28;70134;-30
2024/03/26 04:45:05;;;;;;;6.00;5.40;;;;;;;33.28;73.37;101066.03;5018914;28;66624;-30
2024/03/26 04:47:34;;;;;;;6.85;5.35;;;;;;;33.31;72.92;101059.28;4999886;28;69508;-30
2024/03/26 04:50:05;;;;;;;5.55;5.15;;;;;;;33.33;73.15;101057.19;5018749;28;65666;-31
2024/03/26 04:52:34;;;;;;;5.88;5.32;;;;;;;33.36;72.88;101054.81;5017578;28;69510;-31
2024/03/26 04:55:03;;;;;;;5.63;5.10;;;;;;;33.38;72.96;101052.69;5032942;28;66577;-30
2024/03/26 04:57:32;;;;;;;9.30;5.15;;;;;;;33.38;73.32;101036.38;5027397;28;70408;-30
2024/03/26 05:00:01;;;;;;;5.80;4.55;;;;;;;33.41;72.68;101029.66;5024422;28;66453;-31
2024/03/26 05:02:30;;;;;;;5.60;5.20;;;;;;;33.47;72.75;101036.03;5014434;28;70532;-30
2024/03/26 05:04:59;;;;;;;5.28;4.88;;;;;;;33.49;72.77;101031.19;5018984;28;66485;-30
2024/03/26 05:07:28;;;;;;;5.82;5.32;;;;;;;33.47;72.68;101014.28;5016374;28;69162;-31
2024/03/26 05:09:57;;;;;;;5.68;5.18;;;;;;;33.55;72.64;101022.13;5021569;28;66231;-31
2024/03/26 05:12:26;;;;;;;5.32;4.93;;;;;;;33.53;72.81;101010.66;5026458;28;69545;-31
2024/03/26 05:14:55;;;;;;;5.47;4.97;;;;;;;33.58;72.61;101008.06;5023799;28;65761;-32
2024/03/26 05:17:25;;;;;;;5.40;4.93;;;;;;;33.62;72.52;101011.13;5041669;28;70480;-30
2024/03/26 05:19:54;;;;;;;5.45;4.78;;;;;;;33.64;72.58;101009.84;5024411;28;66328;-31
2024/03/26 05:22:23;;;;;;;5.20;4.70;;;;;;;33.68;72.33;101002.84;5041527;28;69606;-31
2024/03/26 05:24:52;;;;;;;5.18;4.78;;;;;;;33.51;72.24;100971.94;5024488;28;65198;-30
2024/03/26 05:27:21;;;;;;;5.43;4.93;;;;;;;33.72;72.29;100995.06;5039005;28;70567;-31
2024/03/26 05:29:51;;;;;;;5.53;5.03;;;;;;;33.74;71.99;100988.31;5012871;28;66336;-31
2024/03/26 05:32:21;;;;;;;5.30;4.80;;;;;;;33.76;72.25;100983.44;5018422;28;69754;-32
2024/03/26 05:34:50;;;;;;;5.30;4.90;;;;;;;33.80;72.34;100973.75;5018274;28;66761;-31
2024/03/26 05:37:20;;;;;;;5.15;4.65;;;;;;;33.68;71.86;100945.72;5017937;28;70673;-30
2024/03/26 05:39:49;;;;;;;5.38;4.97;;;;;;;33.89;72.25;100962.50;5011484;28;65638;-33
2024/03/26 05:42:18;;;;;;;5.03;4.63;;;;;;;33.91;72.21;100971.25;5027584;28;70012;-30
2024/03/26 05:44:47;;;;;;;5.25;4.75;;;;;;;33.94;72.03;100959.91;5018627;28;66465;-31
2024/03/26 05:47:17;;;;;;;4.65;4.25;;;;;;;33.97;71.60;100945.81;5018030;28;70195;-31
2024/03/26 05:49:45;;;;;;;4.97;4.53;;;;;;;34.01;71.83;100949.69;5021828;28;65286;-30
2024/03/26 05:52:14;;;;;;;5.85;4.90;;;;;;;34.03;71.77;100939.41;5017156;28;69602;-30
2024/03/26 05:54:43;;;;;;;5.15;4.78;;;;;;;34.03;71.84;100942.94;5052692;28;66031;-31
2024/03/26 05:57:12;;;;;;;4.88;4.47;;;;;;;34.05;71.94;100934.56;5040038;28;70637;-31
2024/03/26 05:59:41;;;;;;;5.68;5.18;;;;;;;34.11;71.72;100935.50;5019039;28;67022;-31
2024/03/26 06:02:10;;;;;;;4.78;4.35;;;;;;;34.12;71.74;100918.91;5021961;28;69953;-32
2024/03/26 06:04:40;;;;;;;6.32;4.30;;;;;;;34.17;71.19;100927.19;5029689;28;65979;-35
2024/03/26 06:07:09;;;;;;;5.55;5.07;;;;;;;34.16;71.29;100920.09;5029828;28;70654;-32
2024/03/26 06:09:38;;;;;;;5.60;4.72;;;;;;;34.21;71.45;100917.50;5037779;28;65547;-30
2024/03/26 06:12:09;;;;;;;6.10;4.93;;;;;;;34.26;71.29;100909.41;5031336;28;70135;-31
2024/03/26 06:14:38;;;;;;;5.22;4.75;;;;;;;34.26;71.51;100893.06;5029190;28;66812;-30
2024/03/26 06:17:06;;;;;;;5.72;4.75;;;;;;;34.33;71.45;100898.38;5032600;28;70287;-30
2024/03/26 06:19:37;;;;;;;5.18;4.78;;;;;;;34.36;71.46;100895.16;5049228;28;66991;-33
2024/03/26 06:22:06;;;;;;;4.68;4.25;;;;;;;34.40;70.94;100888.16;5029312;28;69624;-32
2024/03/26 06:24:35;;;;;;;4.82;4.53;;;;;;;34.44;70.84;100883.06;5024643;28;66347;-35
2024/03/26 06:27:06;;;;;;;5.03;4.63;;;;;;;34.48;70.94;100870.59;5023329;28;70277;-34
2024/03/26 06:29:38;;;;;;;4.70;4.30;;;;;;;34.52;70.66;100874.50;5024391;28;65861;-32
2024/03/26 06:32:07;;;;;;;5.63;5.10;;;;;;;34.54;71.23;100866.88;5024868;28;70362;-33
2024/03/26 06:34:39;;;;;;;4.90;4.50;;;;;;;34.60;71.14;100867.81;5030767;28;66781;-33
2024/03/26 06:37:08;;;;;;;4.43;4.13;;;;;;;34.62;71.13;100847.44;5027378;28;70399;-35
2024/03/26 06:39:38;;;;;;;4.75;4.28;;;;;;;34.63;70.69;100846.38;5026881;28;66387;-35
2024/03/26 06:42:07;;;;;;;5.60;4.45;;;;;;;34.68;70.73;100840.16;5021752;28;69366;-31
2024/03/26 06:44:36;;;;;;;4.97;4.47;;;;;;;34.79;70.99;100846.63;5028897;28;65671;-32
2024/03/26 06:47:06;;;;;;;4.55;4.05;;;;;;;34.79;70.35;100839.25;5032914;28;70326;-35
2024/03/26 06:49:35;;;;;;;4.75;4.28;;;;;;;34.85;70.52;100837.44;5021759;28;66665;-31
2024/03/26 06:52:04;;;;;;;4.13;3.75;;;;;;;34.89;70.81;100820.34;5014845;28;69955;-32
2024/03/26 06:54:33;;;;;;;4.75;4.35;;;;;;;34.95;70.75;100829.44;5024598;28;66167;-31
2024/03/26 06:57:02;;;;;;;5.97;4.20;;;;;;;34.97;70.63;100816.38;5024532;28;70367;-33
2024/03/26 06:59:32;;;;;;;5.07;4.57;;;;;;;35.03;70.29;100818.09;5014940;28;66473;-32
2024/03/26 07:02:03;;;;;;;4.72;4.20;;;;;;;35.11;70.07;100828.63;5027241;28;70406;-30
2024/03/26 07:04:34;;;;;;;4.75;4.00;;;;;;;35.16;70.02;100810.66;5006139;28;66201;-31
2024/03/26 07:07:02;;;;;;;5.57;4.15;;;;;;;35.22;70.19;100823.31;5029256;28;70254;-31
2024/03/26 07:09:38;;;;;;;5.07;4.47;;;;;;;35.26;69.96;100813.53;5027834;28;43381;-31
2024/03/26 07:12:07;;;;;;;5.18;3.63;;;;;;;35.30;70.36;100807.34;5023568;28;70048;-30
2024/03/26 07:14:36;;;;;;;8.65;3.70;;;;;;;35.37;69.76;100798.97;5009578;28;65778;-31
2024/03/26 07:17:05;;;;;;;4.35;3.95;;;;;;;35.43;69.83;100795.22;5029341;28;69498;-31
2024/03/26 07:19:34;;;;;;;4.28;3.90;;;;;;;35.47;70.10;100798.28;5011583;28;66055;-31
2024/03/26 07:22:04;;;;;;;7.32;3.75;;;;;;;35.52;70.11;100793.72;5022720;28;69556;-31
2024/03/26 07:24:33;;;;;;;4.10;3.72;;;;;;;35.55;69.92;100790.47;5029935;28;66276;-32
2024/03/26 07:27:02;;;;;;;4.10;3.80;;;;;;;35.57;69.26;100780.13;5020294;28;69661;-30
2024/03/26 07:29:31;;;;;;;6.57;3.30;;;;;;;35.69;69.73;100782.75;5038522;28;65643;-31
2024/03/26 07:32:00;;;;;;;3.38;3.17;;;;;;;35.72;69.24;100784.16;5003703;28;70415;-31
2024/03/26 07:34:29;;;;;;;3.85;3.55;;;;;;;35.81;69.30;100793.53;5004160;28;65994;-31
2024/03/26 07:36:58;;;;;;;3.97;3.50;;;;;;;35.89;69.56;100794.97;5045206;28;70375;-30
2024/03/26 07:39:29;;;;;;;3.88;3.30;;;;;;;35.93;69.51;100788.72;5031226;28;66591;-30
2024/03/26 07:41:58;;;;;;;;;;;;;;;35.89;68.78;100789.50;5017049;28;69276;-30
2024/03/26 07:44:27;;;;;;;4.72;3.58;;;;;;;36.07;68.70;100785.63;5021068;28;66075;-30
2024/03/26 07:46:58;;;;;;;4.47;3.45;;;;;;;36.14;68.66;100788.97;5031381;28;70546;-31
2024/03/26 07:49:27;;;;;;;5.07;3.53;;;;;;;36.18;68.77;100792.81;5026128;28;66222;-31
2024/03/26 07:51:56;;;;;;;4.90;3.45;;;;;;;36.26;68.59;100791.53;5029206;28;70812;-30
2024/03/26 07:54:25;;;;;;;4.47;3.42;;;;;;;36.29;68.52;100785.56;5033264;28;66130;-33
2024/03/26 07:56:54;;;;;;;7.30;3.75;;;;;;;36.36;68.93;100795.19;5035250;28;69981;-31
2024/03/26 07:59:23;;;;;;;3.50;3.20;;;;;;;36.39;68.24;100789.19;5038797;28;67111;-31
2024/03/26 08:01:52;;;;;;;4.63;3.17;;;;;;;36.49;68.09;100793.09;5024595;28;69402;-35
2024/03/26 08:04:21;;;;;;;3.35;3.05;;;;;;;36.56;68.66;100785.53;5041083;28;66427;-33
2024/03/26 08:06:49;;;;;;;3.75;3.30;;;;;;;36.61;67.85;100785.56;5023847;28;70145;-36
2024/03/26 08:09:18;;;;;;;6.10;3.28;;;;;;;36.60;68.09;100773.81;5046307;28;65937;-31
2024/03/26 08:11:47;;;;;;;3.42;3.13;;;;;;;36.74;68.53;100774.16;5030461;28;69323;-35
2024/03/26 08:14:16;;;;;;;3.05;2.85;;;;;;;36.81;67.77;100779.44;5021302;28;66310;-31
2024/03/26 08:16:45;;;;;;;4.00;3.15;;;;;;;36.88;67.92;100777.28;5016370;28;68781;-31
2024/03/26 08:19:14;;;;;;;9.05;3.25;;;;;;;36.94;67.42;100778.13;5050680;28;65923;-31
2024/03/26 08:21:43;;;;;;;3.50;3.20;;;;;;;37.01;67.87;100781.47;5020634;28;70407;-31
2024/03/26 08:24:12;;;;;;;5.90;3.15;;;;;;;37.06;67.31;100776.88;5031040;28;66045;-31
2024/03/26 08:26:42;;;;;;;3.70;3.28;;;;;;;37.11;67.62;100773.31;5029401;28;69508;-31
2024/03/26 08:29:11;;;;;;;4.05;2.88;;;;;;;37.19;67.40;100775.53;5024087;28;66821;-30
2024/03/26 08:31:40;;;;;;;4.63;3.03;;;;;;;37.26;66.88;100781.59;5028850;28;69249;-30
2024/03/26 08:34:09;;;;;;;3.25;2.95;;;;;;;37.28;66.84;100789.56;5020013;28;65727;-31
2024/03/26 08:36:38;;;;;;;3.60;3.30;;;;;;;37.37;66.94;100800.81;5026821;28;69720;-33
2024/03/26 08:39:10;;;;;;;4.45;2.92;;;;;;;37.45;66.83;100789.34;5047535;28;66521;-32
2024/03/26 08:41:39;;;;;;;3.80;3.03;;;;;;;37.50;67.06;100792.13;5031375;28;70225;-32
2024/03/26 08:44:08;;;;;;;3.03;2.72;;;;;;;37.55;67.00;100789.41;5025744;28;66290;-32
2024/03/26 08:46:37;;;;;;;2.60;2.40;;;;;;;37.62;66.46;100790.00;5021926;28;70627;-32
2024/03/26 08:49:06;;;;;;;2.90;2.60;;;;;;;37.68;66.13;100788.91;5027744;28;65806;-32
2024/03/26 08:51:35;;;;;;;6.10;3.03;;;;;;;37.65;66.05;100783.97;5026088;28;70138;-32
2024/03/26 08:54:12;;;;;;;4.53;2.80;;;;;;;37.78;65.72;100793.59;5026095;28;67227;-32
2024/03/26 08:56:41;;;;;;;3.63;3.17;;;;;;;37.84;66.14;100795.25;5031769;28;70325;-34
2024/03/26 08:59:10;;;;;;;3.33;3.03;;;;;;;37.88;65.96;100803.75;5020615;28;65699;-33
2024/03/26 09:01:39;;;;;;;3.72;3.40;;;;;;;37.91;65.88;100794.97;5027137;28;69581;-31
2024/03/26 09:04:08;;;;;;;3.50;3.17;;;;;;;37.97;66.18;100793.91;5001412;28;66650;-31
2024/03/26 09:06:37;;;;;;;5.03;3.30;;;;;;;38.04;65.96;100791.75;5025499;28;70251;-31
2024/03/26 09:09:06;;;;;;;5.63;3.08;;;;;;;38.06;65.21;100792.31;5034730;28;66308;-33
2024/03/26 09:11:35;;;;;;;5.15;3.63;;;;;;;38.10;65.75;100790.66;5007427;28;70156;-31
2024/03/26 09:14:06;;;;;;;11.15;3.17;;;;;;;38.19;65.81;100789.00;5032790;28;66055;-36
2024/03/26 09:16:35;;;;;;;4.00;3.60;;;;;;;38.21;65.36;100775.06;5029203;28;69899;-35
2024/03/26 09:19:04;;;;;;;3.70;3.13;;;;;;;38.23;65.42;100779.19;5033803;28;65624;-32
2024/03/26 09:21:33;;;;;;;9.73;4.60;;;;;;;38.20;65.74;100768.78;5028858;28;69924;-32
2024/03/26 09:24:03;;;;;;;8.90;4.72;;;;;;;38.40;65.46;100791.78;5031219;28;65949;-33
2024/03/26 09:26:32;;;;;;;5.15;4.75;;;;;;;38.45;65.99;100786.34;5019797;28;70462;-31
2024/03/26 09:29:03;;;;;;;7.80;5.10;;;;;;;38.46;66.42;100798.94;5030119;28;66976;-31
2024/03/26 09:31:32;;;;;;;9.07;5.50;;;;;;;38.42;65.58;100792.34;5031318;28;70316;-33
2024/03/26 09:34:01;;;;;;;6.65;6.15;;;;;;;38.46;66.26;100793.44;5029904;28;65635;-32
2024/03/26 09:36:30;;;;;;;9.48;6.78;;;;;;;38.49;66.51;100803.84;5019125;28;70259;-31
2024/03/26 09:38:59;;;;;;;13.02;6.35;;;;;;;38.51;66.15;100801.69;5027472;28;66318;-36
2024/03/26 09:41:29;;;;;;;7.95;6.68;;;;;;;38.53;66.70;100804.13;5046924;28;68480;-33
2024/03/26 09:43:58;;;;;;;8.02;7.07;;;;;;;38.45;66.84;100797.31;5028281;28;66531;-33
2024/03/26 09:46:29;;;;;;;9.68;7.25;;;;;;;38.46;67.21;100807.16;5028852;28;69587;-33
2024/03/26 09:48:59;;;;;;;9.80;7.05;;;;;;;38.43;66.85;100802.22;5034662;28;65906;-35
2024/03/26 09:51:32;;;;;;;8.45;7.68;;;;;;;38.49;66.62;100817.56;5031218;28;70135;-34
2024/03/26 09:54:01;;;;;;;11.18;7.95;;;;;;;38.38;66.88;100824.09;5024374;28;66666;-32
2024/03/26 09:56:30;;;;;;;9.02;7.90;;;;;;;38.44;67.11;100825.78;5023887;28;70225;-32
2024/03/26 09:59:00;;;;;;;10.77;8.18;;;;;;;38.47;67.28;100827.97;5039899;28;65592;-34
2024/03/26 10:01:33;;;;;;;8.77;7.90;;;;;;;38.27;66.80;100795.06;5020705;28;69713;-33
2024/03/26 10:04:02;;;;;;;8.25;7.45;;;;;;;38.46;66.91;100826.34;5036512;28;66249;-32
2024/03/26 10:06:32;;;;;;;9.10;8.35;;;;;;;38.43;67.00;100822.22;5038271;28;70524;-31
2024/03/26 10:09:03;;;;;;;9.10;8.10;;;;;;;38.41;66.91;100840.03;5023584;28;65322;-34
2024/03/26 10:11:32;;;;;;;9.70;9.00;;;;;;;38.41;67.05;100834.53;5022927;28;70503;-33
2024/03/26 10:14:01;;;;;;;10.05;9.07;;;;;;;38.40;67.14;100849.31;5024831;28;66472;-31
2024/03/26 10:16:30;;;;;;;12.63;9.23;;;;;;;38.27;67.41;100825.19;5021280;28;70518;-35
2024/03/26 10:18:59;;;;;;;9.55;8.75;;;;;;;38.29;67.22;100836.72;5025205;28;65879;-31
2024/03/26 10:21:28;;;;;;;9.50;8.55;;;;;;;38.32;67.19;100845.19;5031499;28;70209;-31
2024/03/26 10:23:59;;;;;;;10.07;8.90;;;;;;;38.13;67.33;100817.50;5019961;28;65992;-32
2024/03/26 10:26:28;;;;;;;12.27;8.93;;;;;;;38.18;67.51;100831.22;5020811;28;69899;-32
2024/03/26 10:28:57;;;;;;;10.02;8.95;;;;;;;38.21;67.60;100838.06;5026496;28;65122;-31
2024/03/26 10:31:27;;;;;;;9.27;8.38;;;;;;;38.18;67.67;100844.09;5016223;28;70733;-31
2024/03/26 10:33:57;;;;;;;10.13;9.13;;;;;;;38.13;67.40;100842.16;5014177;28;66185;-31
2024/03/26 10:36:27;;;;;;;13.93;8.73;;;;;;;38.14;67.73;100852.03;5009898;28;70444;-32
2024/03/26 10:38:57;;;;;;;9.85;8.95;;;;;;;38.08;67.24;100861.31;5035696;28;66711;-32
2024/03/26 10:41:35;;;;;;;9.70;8.88;;;;;;;38.02;67.79;100865.13;5037257;28;69323;-31
2024/03/26 10:44:06;;;;;;;8.63;7.90;;;;;;;38.01;67.47;100868.97;5028042;28;66684;-36
2024/03/26 10:46:37;;;;;;;10.05;9.02;;;;;;;37.84;67.63;100846.44;5028661;28;70969;-31
2024/03/26 10:49:08;;;;;;;9.63;8.55;;;;;;;37.93;67.53;100867.56;5044470;28;66835;-31
2024/03/26 10:51:39;;;;;;;9.85;9.15;;;;;;;37.87;67.52;100884.25;5028342;28;70544;-32
2024/03/26 10:54:08;;;;;;;12.10;9.38;;;;;;;37.81;68.53;100890.78;5027833;28;66760;-31
2024/03/26 10:56:40;;;;;;;11.07;9.98;;;;;;;37.81;68.47;100893.50;5021646;28;70314;-31
2024/03/26 10:59:11;;;;;;;11.98;10.60;;;;;;;37.76;68.08;100889.66;5036262;28;66193;-31
2024/03/26 11:01:42;;;;;;;17.42;12.90;;;;;;;37.63;68.29;100890.16;5026460;28;70139;-31
2024/03/26 11:04:12;;;;;;;21.38;14.82;;;;;;;37.66;68.58;100908.78;5032294;28;66105;-32
2024/03/26 11:06:42;;;;;;;24.38;15.60;;;;;;;37.64;69.15;100913.72;5021280;28;69613;-32
2024/03/26 11:09:16;;;;;;;34.90;15.73;;;;;;;37.40;69.74;100890.56;5040027;28;66730;-32
2024/03/26 11:11:50;;;;;;;26.90;15.73;;;;;;;37.44;69.60;100908.91;5021165;28;69513;-32
2024/03/26 11:14:20;;;;;;;21.58;15.23;;;;;;;37.46;69.49;100922.34;5026014;28;67048;-31
2024/03/26 11:16:49;;;;;;;32.40;15.20;;;;;;;37.37;69.92;100923.94;5034852;28;69917;-31
2024/03/26 11:19:24;;;;;;;22.77;14.73;;;;;;;37.36;69.25;100923.06;5019808;28;66509;-32
2024/03/26 11:21:54;;;;;;;24.92;15.48;;;;;;;37.32;70.03;100928.25;5019650;28;69976;-33
2024/03/26 11:24:25;;;;;;;21.23;13.98;;;;;;;36.98;70.02;100877.69;5023859;28;65929;-32
2024/03/26 11:26:57;;;;;;;21.63;13.55;;;;;;;37.18;69.76;100921.59;5023665;28;70335;-31
2024/03/26 11:32:58;;;;;;;19.67;14.07;;;;;;;37.18;70.22;100945.41;5044825;28;70167;-31
2024/03/26 11:35:29;;;;;;;21.88;14.15;;;;;;;37.02;69.90;100922.56;4997786;28;66095;-31